Time,TemperatureF,DewpointF,PressureIn,WindDirection,WindDirectionDegrees,WindSpeedMPH,WindSpeedGustMPH,Humidity,HourlyPrecipIn,Conditions,Clouds,dailyrainin,SoftwareType,DateUTC
2013-05-12 00:31:00,39.9,31.3,29.81,WNW,293,0.0,0.0,71,0.00,,,0.00,WUHU21623XXSP,2013-05-12 05:31:00,
2013-05-12 01:31:00,39.9,30.6,29.81,WNW,293,8.3,8.3,69,0.00,,,0.00,WUHU21623XXSP,2013-05-12 06:31:00,
2013-05-12 02:31:00,37.9,29.7,29.81,SW,225,0.0,0.0,72,0.00,,,0.00,WUHU21623XXSP,2013-05-12 07:31:00,
2013-05-12 03:31:00,37.0,28.9,29.82,WNW,293,2.9,2.9,72,0.00,,,0.00,WUHU21623XXSP,2013-05-12 08:31:00,
2013-05-12 04:31:00,36.3,26.5,29.82,West,270,2.5,2.5,67,0.00,,,0.00,WUHU21623XXSP,2013-05-12 09:31:00,
2013-05-12 05:31:00,35.4,26.7,29.83,WNW,293,5.1,5.1,70,0.00,,,0.00,WUHU21623XXSP,2013-05-12 10:31:00,
2013-05-12 06:31:00,35.4,26.7,29.85,WNW,293,5.1,5.1,70,0.00,,,0.00,WUHU21623XXSP,2013-05-12 11:31:00,
2013-05-12 07:31:00,39.7,28.6,29.86,SSW,203,5.1,5.1,64,0.00,,,0.00,WUHU21623XXSP,2013-05-12 12:31:00,
2013-05-12 08:31:00,42.4,29.1,29.86,WNW,293,0.0,0.0,59,0.00,,,0.00,WUHU21623XXSP,2013-05-12 13:31:00,
2013-05-12 09:31:00,42.3,28.6,29.87,NW,315,13.2,13.2,58,0.00,,,0.00,WUHU21623XXSP,2013-05-12 14:31:00,
2013-05-12 10:31:00,45.7,30.0,29.88,WNW,293,0.0,0.0,54,0.00,,,0.00,WUHU21623XXSP,2013-05-12 15:31:00,
2013-05-12 11:31:00,45.1,29.5,29.88,WNW,293,2.0,2.0,54,0.00,,,0.00,WUHU21623XXSP,2013-05-12 16:31:00,
2013-05-12 12:31:00,47.1,29.9,29.88,WNW,293,3.8,3.8,51,0.00,,,0.00,WUHU21623XXSP,2013-05-12 17:31:00,
2013-05-12 13:31:00,47.1,30.4,29.88,West,270,0.0,0.0,52,0.00,,,0.00,WUHU21623XXSP,2013-05-12 18:31:00,
2013-05-12 14:31:00,48.7,27.6,29.87,NNE,23,6.9,6.9,44,0.00,,,0.00,WUHU21623XXSP,2013-05-12 19:31:00,
2013-05-12 15:31:00,51.1,28.6,29.87,NNE,23,13.4,13.4,42,0.00,,,0.00,WUHU21623XXSP,2013-05-12 20:31:00,
2013-05-12 16:31:00,50.9,29.1,29.85,NE,45,0.0,0.0,43,0.00,,,0.00,WUHU21623XXSP,2013-05-12 21:31:00,
2013-05-12 17:31:00,51.4,27.7,29.85,SSW,203,1.1,1.1,40,0.00,,,0.00,WUHU21623XXSP,2013-05-12 22:31:00,
2013-05-12 18:31:00,51.1,26.2,29.84,WNW,293,4.0,4.0,38,0.00,,,0.00,WUHU21623XXSP,2013-05-12 23:31:00,
2013-05-12 19:31:00,49.6,26.1,29.85,WNW,293,5.6,5.6,40,0.00,,,0.00,WUHU21623XXSP,2013-05-13 00:31:00,
2013-05-12 20:31:00,45.9,26.7,29.85,NW,315,0.0,0.0,47,0.00,,,0.00,WUHU21623XXSP,2013-05-13 01:31:00,
2013-05-12 21:27:00,39.9,26.7,29.87,NW,315,0.0,0.0,59,0.00,,,0.00,WUHU21623XXSP,2013-05-13 02:27:00,
2013-05-12 21:32:00,39.6,26.8,29.87,NW,315,0.0,0.0,60,0.00,,,0.00,WUHU21623XXSP,2013-05-13 02:32:00,
2013-05-12 21:37:00,39.4,26.6,29.87,NW,315,0.0,0.0,60,0.00,,,0.00,WUHU21623XXSP,2013-05-13 02:37:00,
2013-05-12 21:42:00,38.8,26.9,29.87,NW,315,0.0,0.0,62,0.00,,,0.00,WUHU21623XXSP,2013-05-13 02:42:00,
2013-05-12 21:47:00,38.5,26.5,29.87,NW,315,0.0,0.0,62,0.00,,,0.00,WUHU21623XXSP,2013-05-13 02:47:00,
2013-05-12 21:52:00,38.3,26.4,29.87,NW,315,0.0,0.0,62,0.00,,,0.00,WUHU21623XXSP,2013-05-13 02:52:00,
2013-05-12 21:57:00,37.9,26.6,29.87,NW,315,0.0,0.0,63,0.00,,,0.00,WUHU21623XXSP,2013-05-13 02:57:00,
2013-05-12 22:02:00,37.8,26.4,29.88,NW,315,0.0,0.0,64,0.00,,,0.00,WUHU21623XXSP,2013-05-13 03:02:00,
2013-05-12 22:07:00,37.6,26.9,29.88,NW,315,0.0,0.0,66,0.00,,,0.00,WUHU21623XXSP,2013-05-13 03:07:00,
2013-05-12 22:12:00,37.6,27.2,29.88,North,0,0.0,0.0,66,0.00,,,0.00,WUHU21623XXSP,2013-05-13 03:12:00,
2013-05-12 22:17:00,37.8,27.4,29.88,North,0,0.0,0.0,66,0.00,,,0.00,WUHU21623XXSP,2013-05-13 03:17:00,
2013-05-12 22:22:00,37.6,26.9,29.88,North,0,0.0,0.0,65,0.00,,,0.00,WUHU21623XXSP,2013-05-13 03:22:00,
2013-05-12 22:27:00,37.2,26.5,29.88,East,90,0.0,0.0,65,0.00,,,0.00,WUHU21623XXSP,2013-05-13 03:27:00,
2013-05-12 22:32:00,37.0,26.7,29.88,NNW,337,0.0,0.0,66,0.00,,,0.00,WUHU21623XXSP,2013-05-13 03:32:00,
2013-05-12 22:37:00,36.9,26.9,29.89,NNW,337,3.8,3.8,67,0.00,,,0.00,WUHU21623XXSP,2013-05-13 03:37:00,
2013-05-12 22:42:00,37.2,28.0,29.89,NNW,337,0.0,4.5,69,0.00,,,0.00,WUHU21623XXSP,2013-05-13 03:42:00,
2013-05-12 22:47:00,37.8,28.9,29.88,WNW,292,1.8,4.5,70,0.00,,,0.00,WUHU21623XXSP,2013-05-13 03:47:00,
2013-05-12 22:52:00,37.9,29.4,29.89,NE,45,0.0,1.8,71,0.00,,,0.00,WUHU21623XXSP,2013-05-13 03:52:00,
2013-05-12 22:58:00,37.9,29.4,29.89,NNW,337,2.2,2.2,71,0.00,,,0.00,WUHU21623XXSP,2013-05-13 03:58:00,
2013-05-12 23:01:00,37.9,29.7,29.89,NE,45,0.0,2.2,72,0.00,,,0.00,WUHU21623XXSP,2013-05-13 04:01:00,
2013-05-12 23:02:00,37.9,29.7,29.89,NNW,337,0.0,2.2,72,0.00,,,0.00,WUHU21623XXSP,2013-05-13 04:02:00,
2013-05-12 23:07:00,37.9,30.0,29.89,NNW,337,0.0,2.2,73,0.00,,,0.00,WUHU21623XXSP,2013-05-13 04:07:00,
2013-05-12 23:12:00,37.9,30.0,29.89,ENE,67,0.0,0.0,73,0.00,,,0.00,WUHU21623XXSP,2013-05-13 04:12:00,
2013-05-12 23:17:00,37.9,30.7,29.90,WNW,292,2.9,2.9,75,0.00,,,0.00,WUHU21623XXSP,2013-05-13 04:17:00,
2013-05-12 23:22:00,37.9,31.4,29.90,NW,315,3.1,3.1,77,0.00,,,0.00,WUHU21623XXSP,2013-05-13 04:22:00,
2013-05-12 23:27:00,37.9,31.4,29.90,NW,315,5.1,5.1,77,0.00,,,0.00,WUHU21623XXSP,2013-05-13 04:27:00,
2013-05-12 23:32:00,38.1,32.5,29.91,East,90,5.4,12.5,80,0.00,,,0.00,WUHU21623XXSP,2013-05-13 04:32:00,
2013-05-12 23:37:00,37.9,32.0,29.90,NE,45,1.8,12.5,79,0.00,,,0.00,WUHU21623XXSP,2013-05-13 04:37:00,
2013-05-12 23:42:00,37.9,32.4,29.91,WNW,292,0.0,3.1,80,0.00,,,0.00,WUHU21623XXSP,2013-05-13 04:42:00,
2013-05-12 23:47:00,37.8,32.2,29.91,NNW,337,1.3,2.5,81,0.00,,,0.00,WUHU21623XXSP,2013-05-13 04:47:00,
2013-05-12 23:52:00,37.6,32.6,29.91,NNW,337,0.0,2.5,82,0.00,,,0.00,WUHU21623XXSP,2013-05-13 04:52:00,
2013-05-12 23:57:00,37.2,32.2,29.91,WNW,292,1.6,2.2,82,0.00,,,0.00,WUHU21623XXSP,2013-05-13 04:57:00,